createdAt,value
2023-03-23T16:00:26.236Z,21.80
2023-03-23T16:03:32.970Z,21.90
2023-03-23T16:06:37.269Z,21.80
2023-03-23T16:09:42.436Z,21.70
2023-03-23T16:12:45.767Z,21.70
2023-03-23T16:15:51.755Z,21.60
2023-03-23T16:18:55.373Z,21.60
2023-03-23T16:21:58.846Z,21.60
2023-03-23T16:25:02.137Z,21.60
2023-03-23T16:28:05.607Z,21.50
2023-03-23T16:31:10.629Z,21.40
2023-03-23T16:34:13.893Z,21.30
2023-03-23T16:37:17.246Z,21.20
2023-03-23T16:40:21.760Z,21.10
2023-03-23T16:43:25.062Z,21.10
2023-03-23T16:46:30.478Z,21.00
2023-03-23T16:49:33.730Z,21.00
2023-03-23T16:52:46.546Z,20.90
2023-03-23T16:55:51.747Z,20.90
2023-03-23T16:58:54.970Z,20.70
2023-03-23T17:02:03.608Z,20.70
2023-03-23T17:05:07.944Z,20.50
2023-03-23T17:08:11.236Z,20.50
2023-03-23T17:11:14.763Z,20.40
2023-03-23T17:14:17.921Z,20.30
2023-03-23T17:17:24.126Z,20.10
2023-03-23T17:20:27.731Z,20.00
2023-03-23T17:23:31.460Z,19.90
2023-03-23T17:26:36.527Z,19.80
2023-03-23T17:29:40.649Z,19.70
2023-03-23T17:32:47.566Z,19.70
2023-03-23T17:35:52.094Z,19.50
2023-03-23T17:38:56.513Z,19.40
2023-03-23T17:42:00.212Z,19.30
2023-03-23T17:45:03.587Z,19.20
2023-03-23T17:48:09.083Z,19.20
2023-03-23T17:51:12.666Z,19.00
2023-03-23T17:54:16.828Z,19.00
2023-03-23T17:57:21.226Z,18.90
2023-03-23T18:00:26.146Z,18.70
2023-03-23T18:03:32.580Z,18.60
2023-03-23T18:06:37.285Z,18.60
2023-03-23T18:09:43.524Z,18.50
2023-03-23T18:12:51.377Z,18.40
2023-03-23T18:15:56.465Z,18.30
2023-03-23T18:19:02.093Z,18.20
2023-03-23T18:22:06.163Z,18.20
2023-03-23T18:25:09.872Z,18.10
2023-03-23T18:28:14.250Z,17.90
2023-03-23T18:31:20.275Z,17.90
2023-03-23T18:34:26.644Z,17.80
2023-03-23T18:37:33.566Z,17.80
2023-03-23T18:40:38.534Z,17.70
2023-03-23T18:43:43.526Z,17.70
2023-03-23T18:46:49.084Z,17.60
2023-03-23T18:49:56.092Z,17.50
2023-03-23T18:53:01.303Z,17.40
2023-03-23T18:56:09.658Z,17.40
2023-03-23T18:59:14.615Z,17.30
2023-03-23T19:02:22.206Z,17.20
2023-03-23T19:05:29.058Z,17.10
2023-03-23T19:08:35.497Z,17.10
2023-03-23T19:11:39.653Z,17.00
2023-03-23T19:14:45.076Z,16.90
2023-03-23T19:17:56.097Z,16.80
2023-03-23T19:24:10.793Z,16.70
2023-03-23T19:27:15.511Z,16.60
2023-03-23T19:30:21.198Z,16.50
2023-03-23T19:33:26.903Z,16.40
2023-03-23T19:36:33.714Z,16.40
2023-03-23T19:39:38.559Z,16.30
2023-03-23T19:42:44.004Z,16.30
2023-03-23T19:45:47.995Z,16.30
2023-03-23T19:48:52.185Z,16.20
2023-03-23T19:52:07.931Z,16.10
2023-03-23T19:55:16.852Z,16.10
2023-03-23T19:58:25.082Z,16.00
2023-03-23T20:01:29.810Z,16.00
2023-03-23T20:04:38.136Z,15.90
2023-03-23T20:07:48.597Z,15.90
2023-03-23T20:11:05.350Z,15.80
2023-03-23T20:14:13.145Z,15.70
2023-03-23T20:17:18.903Z,15.70
2023-03-23T20:20:25.042Z,15.50
2023-03-23T20:23:31.360Z,15.40
2023-03-23T20:26:43.751Z,15.40
2023-03-23T20:29:48.918Z,15.40
2023-03-23T20:32:58.580Z,15.40
2023-03-23T20:36:04.085Z,15.30
2023-03-23T20:39:11.954Z,15.30
2023-03-23T20:42:16.200Z,15.20
2023-03-23T20:45:21.318Z,15.20
2023-03-23T20:48:27.905Z,15.20
2023-03-23T20:51:34.079Z,15.20
2023-03-23T20:54:41.172Z,15.20
2023-03-23T20:57:45.983Z,15.00
2023-03-23T21:00:57.574Z,14.90
2023-03-23T21:04:03.256Z,14.90
2023-03-23T21:07:07.435Z,14.90
2023-03-23T21:10:12.695Z,14.80
2023-03-23T21:13:18.954Z,14.80
2023-03-23T21:16:24.626Z,14.70
2023-03-23T21:19:31.810Z,14.60
2023-03-23T21:22:36.533Z,14.60
2023-03-23T21:25:44.743Z,14.60
2023-03-23T21:28:50.742Z,14.60
2023-03-23T21:32:07.710Z,14.60
2023-03-23T21:35:12.343Z,14.50
2023-03-23T21:38:15.773Z,14.50
2023-03-23T21:41:20.596Z,14.40
2023-03-23T21:44:23.824Z,14.40
2023-03-23T21:47:30.286Z,14.40
2023-03-23T21:50:35.683Z,14.30
2023-03-23T21:53:38.827Z,14.30
2023-03-23T21:56:43.389Z,14.30
2023-03-23T21:59:46.972Z,14.20
2023-03-23T22:02:51.646Z,14.20
2023-03-23T22:05:55.607Z,14.10
2023-03-23T22:08:58.881Z,14.00
2023-03-23T22:12:03.621Z,13.90
2023-03-23T22:15:08.842Z,13.90
2023-03-23T22:18:12.145Z,13.90
2023-03-23T22:21:16.907Z,13.80
2023-03-23T22:24:20.197Z,13.80
2023-03-23T22:27:24.735Z,13.80
2023-03-23T22:30:29.824Z,13.80
2023-03-23T22:33:33.942Z,13.70
2023-03-23T22:36:37.236Z,13.70
2023-03-23T22:39:40.482Z,13.60
2023-03-23T22:42:45.210Z,13.60
2023-03-23T22:45:51.136Z,13.50
2023-03-23T22:48:54.700Z,13.50
2023-03-23T22:51:58.381Z,13.50
2023-03-23T22:55:01.530Z,13.50
2023-03-23T22:58:06.066Z,13.50
2023-03-23T23:01:12.374Z,13.50
2023-03-23T23:04:15.821Z,13.50
2023-03-23T23:07:19.186Z,13.40
2023-03-23T23:10:22.490Z,13.40
2023-03-23T23:13:28.456Z,13.30
2023-03-23T23:16:31.747Z,13.30
2023-03-23T23:19:35.109Z,13.30
2023-03-23T23:22:38.242Z,13.30
2023-03-23T23:25:41.727Z,13.30
2023-03-23T23:28:48.555Z,13.20
2023-03-23T23:31:51.958Z,13.20
2023-03-23T23:34:55.072Z,13.20
2023-03-23T23:37:58.269Z,13.20
2023-03-23T23:41:01.429Z,13.20
2023-03-23T23:44:06.338Z,13.10
2023-03-23T23:47:10.900Z,13.10
2023-03-23T23:50:16.991Z,13.10
2023-03-23T23:53:23.022Z,13.20
2023-03-23T23:56:26.602Z,13.10
2023-03-23T23:59:31.344Z,13.10
